sensor_id;sensor_type;location;lat;lon;timestamp;pressure;altitude;pressure_sealevel;temperature;humidity
57827;BME280;43656;57.746;11.780;2023-03-21T00:00:25;101161.78;;;7.85;100.00
57827;BME280;43656;57.746;11.780;2023-03-21T00:02:51;101161.41;;;7.96;100.00
57827;BME280;43656;57.746;11.780;2023-03-21T00:05:16;101141.53;;;7.82;100.00
57827;BME280;43656;57.746;11.780;2023-03-21T00:07:42;101166.72;;;8.04;100.00
57827;BME280;43656;57.746;11.780;2023-03-21T00:10:08;101152.88;;;7.92;100.00
57827;BME280;43656;57.746;11.780;2023-03-21T00:12:34;101161.56;;;7.94;100.00
57827;BME280;43656;57.746;11.780;2023-03-21T00:15:06;101151.72;;;7.95;100.00
57827;BME280;43656;57.746;11.780;2023-03-21T00:17:32;101147.53;;;7.84;100.00
57827;BME280;43656;57.746;11.780;2023-03-21T00:19:59;101142.38;;;7.83;100.00
57827;BME280;43656;57.746;11.780;2023-03-21T00:22:26;101122.44;;;7.77;100.00
57827;BME280;43656;57.746;11.780;2023-03-21T00:24:55;101144.63;;;8.02;100.00
57827;BME280;43656;57.746;11.780;2023-03-21T00:27:20;101153.16;;;8.06;100.00
57827;BME280;43656;57.746;11.780;2023-03-21T00:29:47;101147.19;;;7.95;100.00
57827;BME280;43656;57.746;11.780;2023-03-21T00:32:16;101152.19;;;7.98;100.00
57827;BME280;43656;57.746;11.780;2023-03-21T00:34:42;101148.00;;;7.96;100.00
57827;BME280;43656;57.746;11.780;2023-03-21T00:37:09;101139.16;;;7.87;100.00
57827;BME280;43656;57.746;11.780;2023-03-21T00:39:36;101152.81;;;8.09;100.00
57827;BME280;43656;57.746;11.780;2023-03-21T00:42:02;101136.03;;;8.15;100.00
57827;BME280;43656;57.746;11.780;2023-03-21T00:44:28;101142.09;;;8.09;100.00
57827;BME280;43656;57.746;11.780;2023-03-21T00:46:53;101121.84;;;8.06;100.00
57827;BME280;43656;57.746;11.780;2023-03-21T00:49:19;101132.81;;;8.19;100.00
57827;BME280;43656;57.746;11.780;2023-03-21T00:51:45;101137.97;;;8.29;100.00
57827;BME280;43656;57.746;11.780;2023-03-21T00:54:11;101143.81;;;8.33;100.00
57827;BME280;43656;57.746;11.780;2023-03-21T00:56:37;101145.34;;;8.27;100.00
57827;BME280;43656;57.746;11.780;2023-03-21T00:59:03;101138.66;;;8.23;99.93
57827;BME280;43656;57.746;11.780;2023-03-21T01:01:28;101146.16;;;8.28;100.00
57827;BME280;43656;57.746;11.780;2023-03-21T01:04:00;101146.84;;;8.30;99.84
57827;BME280;43656;57.746;11.780;2023-03-21T01:06:35;101145.19;;;8.29;99.11
57827;BME280;43656;57.746;11.780;2023-03-21T01:09:04;101147.38;;;8.25;99.53
57827;BME280;43656;57.746;11.780;2023-03-21T01:11:30;101155.44;;;8.17;99.30
57827;BME280;43656;57.746;11.780;2023-03-21T01:13:56;101149.31;;;8.08;99.96
57827;BME280;43656;57.746;11.780;2023-03-21T01:16:22;101139.97;;;7.96;99.16
57827;BME280;43656;57.746;11.780;2023-03-21T01:18:47;101140.13;;;7.94;99.82
57827;BME280;43656;57.746;11.780;2023-03-21T01:21:13;101137.00;;;7.83;99.63
57827;BME280;43656;57.746;11.780;2023-03-21T01:23:40;101134.19;;;7.76;99.51
57827;BME280;43656;57.746;11.780;2023-03-21T01:26:08;101123.19;;;7.63;99.59
57827;BME280;43656;57.746;11.780;2023-03-21T01:28:39;101131.91;;;7.57;99.23
57827;BME280;43656;57.746;11.780;2023-03-21T01:31:05;101136.09;;;7.51;99.34
57827;BME280;43656;57.746;11.780;2023-03-21T01:33:32;101125.56;;;7.41;99.44
57827;BME280;43656;57.746;11.780;2023-03-21T01:35:57;101131.25;;;7.38;98.86
57827;BME280;43656;57.746;11.780;2023-03-21T01:38:24;101136.13;;;7.43;99.14
57827;BME280;43656;57.746;11.780;2023-03-21T01:40:50;101126.41;;;7.42;99.17
57827;BME280;43656;57.746;11.780;2023-03-21T01:43:28;101136.94;;;7.43;99.31
57827;BME280;43656;57.746;11.780;2023-03-21T01:48:42;101139.59;;;7.51;99.35
57827;BME280;43656;57.746;11.780;2023-03-21T01:51:10;101140.59;;;7.59;99.35
57827;BME280;43656;57.746;11.780;2023-03-21T01:53:37;101146.94;;;7.66;98.56
57827;BME280;43656;57.746;11.780;2023-03-21T01:56:09;101135.88;;;7.69;98.71
57827;BME280;43656;57.746;11.780;2023-03-21T01:58:37;101138.38;;;7.70;98.89
57827;BME280;43656;57.746;11.780;2023-03-21T02:01:04;101133.88;;;7.63;98.70
57827;BME280;43656;57.746;11.780;2023-03-21T02:03:32;101146.59;;;7.69;98.97
57827;BME280;43656;57.746;11.780;2023-03-21T02:06:10;101150.78;;;7.63;100.00
57827;BME280;43656;57.746;11.780;2023-03-21T02:08:38;101149.09;;;7.70;99.77
57827;BME280;43656;57.746;11.780;2023-03-21T02:11:05;101152.94;;;7.76;99.05
57827;BME280;43656;57.746;11.780;2023-03-21T02:13:34;101158.94;;;7.78;99.30
57827;BME280;43656;57.746;11.780;2023-03-21T02:19:23;101140.72;;;7.73;99.02
57827;BME280;43656;57.746;11.780;2023-03-21T02:22:38;101165.50;;;7.75;99.38
57827;BME280;43656;57.746;11.780;2023-03-21T02:25:35;101170.19;;;7.73;99.74
57827;BME280;43656;57.746;11.780;2023-03-21T02:36:31;101156.59;;;7.91;99.69
57827;BME280;43656;57.746;11.780;2023-03-21T02:39:11;101158.75;;;7.88;99.52
57827;BME280;43656;57.746;11.780;2023-03-21T02:41:56;101154.53;;;7.93;99.84
57827;BME280;43656;57.746;11.780;2023-03-21T02:44:34;101150.34;;;7.91;100.00
57827;BME280;43656;57.746;11.780;2023-03-21T02:47:05;101160.56;;;7.95;100.00
57827;BME280;43656;57.746;11.780;2023-03-21T02:49:42;101152.84;;;8.00;99.84
57827;BME280;43656;57.746;11.780;2023-03-21T02:52:19;101132.13;;;7.86;100.00
57827;BME280;43656;57.746;11.780;2023-03-21T02:54:48;101139.16;;;7.87;100.00
57827;BME280;43656;57.746;11.780;2023-03-21T02:57:17;101133.44;;;7.90;100.00
57827;BME280;43656;57.746;11.780;2023-03-21T02:59:44;101142.88;;;7.78;100.00
57827;BME280;43656;57.746;11.780;2023-03-21T03:02:12;101119.63;;;7.70;100.00
57827;BME280;43656;57.746;11.780;2023-03-21T03:04:38;101148.06;;;7.80;100.00
57827;BME280;43656;57.746;11.780;2023-03-21T03:12:58;101133.16;;;7.85;100.00
57827;BME280;43656;57.746;11.780;2023-03-21T03:15:38;101135.06;;;7.68;100.00
57827;BME280;43656;57.746;11.780;2023-03-21T03:18:25;101134.91;;;7.53;100.00
57827;BME280;43656;57.746;11.780;2023-03-21T03:21:07;101137.44;;;7.55;100.00
57827;BME280;43656;57.746;11.780;2023-03-21T03:23:56;101137.63;;;7.45;100.00
57827;BME280;43656;57.746;11.780;2023-03-21T03:26:33;101146.97;;;7.49;100.00
57827;BME280;43656;57.746;11.780;2023-03-21T03:29:05;101151.97;;;7.69;100.00
57827;BME280;43656;57.746;11.780;2023-03-21T03:31:34;101153.28;;;7.73;100.00
57827;BME280;43656;57.746;11.780;2023-03-21T03:34:07;101157.00;;;7.56;100.00
57827;BME280;43656;57.746;11.780;2023-03-21T03:36:38;101156.47;;;7.60;100.00
57827;BME280;43656;57.746;11.780;2023-03-21T03:39:07;101152.94;;;7.68;100.00
57827;BME280;43656;57.746;11.780;2023-03-21T03:41:42;101087.44;;;7.39;100.00
57827;BME280;43656;57.746;11.780;2023-03-21T03:44:08;101154.59;;;7.85;100.00
57827;BME280;43656;57.746;11.780;2023-03-21T03:46:53;101154.88;;;7.90;99.96
57827;BME280;43656;57.746;11.780;2023-03-21T03:49:24;101133.16;;;7.77;100.00
57827;BME280;43656;57.746;11.780;2023-03-21T03:51:56;101155.72;;;7.91;100.00
57827;BME280;43656;57.746;11.780;2023-03-21T03:54:30;101155.72;;;7.91;99.83
57827;BME280;43656;57.746;11.780;2023-03-21T03:56:57;101150.25;;;7.76;100.00
57827;BME280;43656;57.746;11.780;2023-03-21T03:59:24;101121.00;;;7.66;100.00
57827;BME280;43656;57.746;11.780;2023-03-21T04:01:50;101150.69;;;7.88;100.00
57827;BME280;43656;57.746;11.780;2023-03-21T04:04:15;101115.78;;;7.73;100.00
57827;BME280;43656;57.746;11.780;2023-03-21T04:06:44;101139.97;;;7.88;100.00
57827;BME280;43656;57.746;11.780;2023-03-21T04:09:16;101143.53;;;7.88;100.00
57827;BME280;43656;57.746;11.780;2023-03-21T04:11:42;101145.69;;;7.93;100.00
57827;BME280;43656;57.746;11.780;2023-03-21T04:14:07;101142.16;;;7.92;99.96
57827;BME280;43656;57.746;11.780;2023-03-21T04:16:33;101140.13;;;7.94;100.00
57827;BME280;43656;57.746;11.780;2023-03-21T04:18:59;101123.75;;;7.89;100.00
57827;BME280;43656;57.746;11.780;2023-03-21T04:21:24;101110.69;;;7.86;99.94
57827;BME280;43656;57.746;11.780;2023-03-21T04:23:51;101130.63;;;7.92;100.00
57827;BME280;43656;57.746;11.780;2023-03-21T04:26:19;101128.63;;;7.86;100.00
57827;BME280;43656;57.746;11.780;2023-03-21T04:28:45;101135.69;;;7.79;100.00
57827;BME280;43656;57.746;11.780;2023-03-21T04:31:11;101144.31;;;7.97;99.61
57827;BME280;43656;57.746;11.780;2023-03-21T04:33:37;101137.25;;;8.04;99.07
57827;BME280;43656;57.746;11.780;2023-03-21T04:36:05;101136.38;;;8.12;98.83
57827;BME280;43656;57.746;11.780;2023-03-21T04:38:31;101133.38;;;8.07;98.53
57827;BME280;43656;57.746;11.780;2023-03-21T04:40:59;101135.03;;;8.08;98.41
57827;BME280;43656;57.746;11.780;2023-03-21T04:43:24;101139.22;;;8.10;98.40
57827;BME280;43656;57.746;11.780;2023-03-21T04:45:50;101112.97;;;7.97;98.13
57827;BME280;43656;57.746;11.780;2023-03-21T04:48:16;101143.06;;;8.16;97.91
57827;BME280;43656;57.746;11.780;2023-03-21T04:50:48;101141.63;;;8.05;98.65
57827;BME280;43656;57.746;11.780;2023-03-21T04:53:14;101141.47;;;7.98;99.41
57827;BME280;43656;57.746;11.780;2023-03-21T04:55:39;101136.81;;;7.92;99.00
57827;BME280;43656;57.746;11.780;2023-03-21T04:58:05;101137.81;;;7.91;99.32
57827;BME280;43656;57.746;11.780;2023-03-21T05:00:31;101140.50;;;7.91;99.15
57827;BME280;43656;57.746;11.780;2023-03-21T05:03:02;101144.16;;;7.90;99.57
57827;BME280;43656;57.746;11.780;2023-03-21T05:05:29;101131.47;;;7.84;99.83
57827;BME280;43656;57.746;11.780;2023-03-21T05:07:55;101142.84;;;7.86;99.84
57827;BME280;43656;57.746;11.780;2023-03-21T05:10:21;101148.88;;;7.88;100.00
57827;BME280;43656;57.746;11.780;2023-03-21T05:12:46;101138.31;;;7.87;99.40
57827;BME280;43656;57.746;11.780;2023-03-21T05:15:12;101146.56;;;7.85;99.32
57827;BME280;43656;57.746;11.780;2023-03-21T05:17:37;101134.81;;;7.78;99.00
57827;BME280;43656;57.746;11.780;2023-03-21T05:20:03;101149.03;;;7.87;99.31
57827;BME280;43656;57.746;11.780;2023-03-21T05:22:30;101132.16;;;7.78;99.19
57827;BME280;43656;57.746;11.780;2023-03-21T05:25:07;101158.72;;;7.96;99.50
57827;BME280;43656;57.746;11.780;2023-03-21T05:27:34;101160.59;;;7.87;99.46
57827;BME280;43656;57.746;11.780;2023-03-21T05:30:00;101152.75;;;7.86;99.21
57827;BME280;43656;57.746;11.780;2023-03-21T05:32:26;101148.22;;;7.86;99.69
57827;BME280;43656;57.746;11.780;2023-03-21T05:34:51;101149.88;;;7.87;99.24
57827;BME280;43656;57.746;11.780;2023-03-21T05:37:17;101151.72;;;7.87;99.15
57827;BME280;43656;57.746;11.780;2023-03-21T05:39:42;101145.91;;;7.75;99.80
57827;BME280;43656;57.746;11.780;2023-03-21T05:42:08;101123.47;;;7.68;99.45
57827;BME280;43656;57.746;11.780;2023-03-21T05:44:33;101142.56;;;7.73;99.90
57827;BME280;43656;57.746;11.780;2023-03-21T05:46:59;101142.25;;;7.60;99.92
57827;BME280;43656;57.746;11.780;2023-03-21T05:49:25;101147.25;;;7.71;99.90
57827;BME280;43656;57.746;11.780;2023-03-21T05:51:51;101148.59;;;7.67;99.53
57827;BME280;43656;57.746;11.780;2023-03-21T05:54:16;101133.91;;;7.54;99.73
57827;BME280;43656;57.746;11.780;2023-03-21T05:56:42;101151.81;;;7.62;99.45
57827;BME280;43656;57.746;11.780;2023-03-21T05:59:07;101153.63;;;7.70;99.27
57827;BME280;43656;57.746;11.780;2023-03-21T06:01:32;101151.97;;;7.69;99.72
57827;BME280;43656;57.746;11.780;2023-03-21T06:03:58;101150.75;;;7.71;99.57
57827;BME280;43656;57.746;11.780;2023-03-21T06:06:23;101156.47;;;7.68;99.55
57827;BME280;43656;57.746;11.780;2023-03-21T06:08:49;101150.44;;;7.58;100.00
57827;BME280;43656;57.746;11.780;2023-03-21T06:11:22;101147.94;;;7.65;99.92
57827;BME280;43656;57.746;11.780;2023-03-21T06:13:49;101141.44;;;7.59;99.26
57827;BME280;43656;57.746;11.780;2023-03-21T06:16:14;101154.97;;;7.58;99.46
57827;BME280;43656;57.746;11.780;2023-03-21T06:18:39;101139.28;;;7.46;99.81
57827;BME280;43656;57.746;11.780;2023-03-21T06:21:05;101151.50;;;7.49;99.99
57827;BME280;43656;57.746;11.780;2023-03-21T06:23:31;101154.00;;;7.59;99.52
57827;BME280;43656;57.746;11.780;2023-03-21T06:25:56;101141.78;;;7.48;100.00
57827;BME280;43656;57.746;11.780;2023-03-21T06:28:22;101141.25;;;7.61;99.83
57827;BME280;43656;57.746;11.780;2023-03-21T06:30:47;101137.41;;;7.63;99.82
57827;BME280;43656;57.746;11.780;2023-03-21T06:33:12;101130.19;;;7.72;100.00
57827;BME280;43656;57.746;11.780;2023-03-21T06:35:38;101128.00;;;7.67;99.70
57827;BME280;43656;57.746;11.780;2023-03-21T06:38:03;101134.19;;;7.68;99.82
57827;BME280;43656;57.746;11.780;2023-03-21T06:40:29;101125.22;;;7.52;100.00
57827;BME280;43656;57.746;11.780;2023-03-21T06:42:54;101124.19;;;7.53;100.00
57827;BME280;43656;57.746;11.780;2023-03-21T06:45:19;101115.00;;;7.56;100.00
57827;BME280;43656;57.746;11.780;2023-03-21T06:47:45;101126.56;;;7.48;100.00
57827;BME280;43656;57.746;11.780;2023-03-21T06:50:11;101129.03;;;7.58;100.00
57827;BME280;43656;57.746;11.780;2023-03-21T06:52:36;101127.03;;;7.60;100.00
57827;BME280;43656;57.746;11.780;2023-03-21T06:55:01;101132.22;;;7.62;100.00
57827;BME280;43656;57.746;11.780;2023-03-21T06:57:27;101125.50;;;7.66;99.98
57827;BME280;43656;57.746;11.780;2023-03-21T06:59:52;101118.84;;;7.62;99.85
57827;BME280;43656;57.746;11.780;2023-03-21T07:02:18;101131.84;;;7.65;100.00
57827;BME280;43656;57.746;11.780;2023-03-21T07:04:43;101139.06;;;7.64;100.00
57827;BME280;43656;57.746;11.780;2023-03-21T07:07:09;101122.34;;;7.54;99.99
57827;BME280;43656;57.746;11.780;2023-03-21T07:09:35;101149.59;;;7.74;100.00
57827;BME280;43656;57.746;11.780;2023-03-21T07:12:00;101152.91;;;7.84;100.00
57827;BME280;43656;57.746;11.780;2023-03-21T07:14:26;101149.91;;;7.79;100.00
57827;BME280;43656;57.746;11.780;2023-03-21T07:16:51;101148.06;;;7.80;99.93
57827;BME280;43656;57.746;11.780;2023-03-21T07:19:17;101144.69;;;7.86;100.00
57827;BME280;43656;57.746;11.780;2023-03-21T07:21:42;101150.88;;;7.86;99.47
57827;BME280;43656;57.746;11.780;2023-03-21T07:24:08;101143.66;;;7.95;100.00
57827;BME280;43656;57.746;11.780;2023-03-21T07:26:33;101148.69;;;7.98;99.57
57827;BME280;43656;57.746;11.780;2023-03-21T07:28:59;101155.84;;;8.06;99.52
57827;BME280;43656;57.746;11.780;2023-03-21T07:31:24;101160.31;;;8.13;98.96
57827;BME280;43656;57.746;11.780;2023-03-21T07:33:51;101159.16;;;8.16;99.11
57827;BME280;43656;57.746;11.780;2023-03-21T07:36:16;101157.50;;;8.15;98.96
57827;BME280;43656;57.746;11.780;2023-03-21T07:38:42;101154.81;;;8.07;99.45
57827;BME280;43656;57.746;11.780;2023-03-21T07:41:08;101157.34;;;8.08;99.16
57827;BME280;43656;57.746;11.780;2023-03-21T07:43:34;101154.31;;;8.11;98.93
57827;BME280;43656;57.746;11.780;2023-03-21T07:45:59;101157.34;;;8.08;99.32
57827;BME280;43656;57.746;11.780;2023-03-21T07:48:25;101154.97;;;8.13;98.37
57827;BME280;43656;57.746;11.780;2023-03-21T07:50:51;101154.28;;;8.19;98.06
57827;BME280;43656;57.746;11.780;2023-03-21T07:53:17;101139.06;;;8.12;98.48
57827;BME280;43656;57.746;11.780;2023-03-21T07:55:42;101154.28;;;8.19;97.99
57827;BME280;43656;57.746;11.780;2023-03-21T07:58:07;101155.78;;;8.22;98.47
57827;BME280;43656;57.746;11.780;2023-03-21T08:00:33;101138.75;;;8.07;98.38
57827;BME280;43656;57.746;11.780;2023-03-21T08:02:59;101154.28;;;8.19;98.28
57827;BME280;43656;57.746;11.780;2023-03-21T08:05:32;101153.72;;;8.24;97.95
57827;BME280;43656;57.746;11.780;2023-03-21T08:07:59;101150.69;;;8.27;97.54
57827;BME280;43656;57.746;11.780;2023-03-21T08:10:25;101155.22;;;8.27;97.36
57827;BME280;43656;57.746;11.780;2023-03-21T08:12:51;101145.00;;;8.38;96.92
57827;BME280;43656;57.746;11.780;2023-03-21T08:15:16;101143.16;;;8.39;96.96
57827;BME280;43656;57.746;11.780;2023-03-21T08:17:42;101145.28;;;8.43;96.45
57827;BME280;43656;57.746;11.780;2023-03-21T08:20:12;101144.41;;;8.51;96.42
57827;BME280;43656;57.746;11.780;2023-03-21T08:22:38;101139.41;;;8.48;96.41
57827;BME280;43656;57.746;11.780;2023-03-21T08:25:05;101136.78;;;8.63;96.09
57827;BME280;43656;57.746;11.780;2023-03-21T08:27:33;101137.63;;;8.63;95.95
57827;BME280;43656;57.746;11.780;2023-03-21T08:29:59;101135.88;;;8.70;95.99
57827;BME280;43656;57.746;11.780;2023-03-21T08:32:25;101137.09;;;8.68;95.51
57827;BME280;43656;57.746;11.780;2023-03-21T08:35:04;101134.66;;;8.81;94.96
57827;BME280;43656;57.746;11.780;2023-03-21T08:37:35;101130.34;;;8.95;94.76
57827;BME280;43656;57.746;11.780;2023-03-21T08:40:00;101129.53;;;9.09;93.69
57827;BME280;43656;57.746;11.780;2023-03-21T08:42:26;101126.69;;;9.11;94.12
57827;BME280;43656;57.746;11.780;2023-03-21T08:44:51;101121.59;;;9.16;94.74
57827;BME280;43656;57.746;11.780;2023-03-21T08:47:17;101129.03;;;9.29;93.57
57827;BME280;43656;57.746;11.780;2023-03-21T08:49:42;101130.22;;;9.26;93.95
57827;BME280;43656;57.746;11.780;2023-03-21T08:52:10;101128.72;;;9.24;93.32
57827;BME280;43656;57.746;11.780;2023-03-21T08:54:35;101125.31;;;9.30;93.47
57827;BME280;43656;57.746;11.780;2023-03-21T08:57:01;101124.88;;;9.41;92.64
57827;BME280;43656;57.746;11.780;2023-03-21T08:59:26;101135.91;;;9.46;91.96
57827;BME280;43656;57.746;11.780;2023-03-21T09:01:52;101134.34;;;9.52;91.75
57827;BME280;43656;57.746;11.780;2023-03-21T09:04:17;101136.03;;;9.68;90.62
57827;BME280;43656;57.746;11.780;2023-03-21T09:06:43;101133.53;;;9.81;90.45
57827;BME280;43656;57.746;11.780;2023-03-21T09:09:10;101119.25;;;9.80;90.09
57827;BME280;43656;57.746;11.780;2023-03-21T09:11:36;101102.09;;;9.67;89.41
57827;BME280;43656;57.746;11.780;2023-03-21T09:14:02;101126.00;;;9.76;89.66
57827;BME280;43656;57.746;11.780;2023-03-21T09:16:27;101123.84;;;9.86;88.57
57827;BME280;43656;57.746;11.780;2023-03-21T09:18:53;101120.34;;;9.86;88.50
57827;BME280;43656;57.746;11.780;2023-03-21T09:21:21;101108.31;;;9.67;88.15
57827;BME280;43656;57.746;11.780;2023-03-21T09:23:49;101124.53;;;9.74;87.63
57827;BME280;43656;57.746;11.780;2023-03-21T09:26:22;101125.25;;;9.82;87.84
57827;BME280;43656;57.746;11.780;2023-03-21T09:28:48;101128.41;;;9.86;86.57
57827;BME280;43656;57.746;11.780;2023-03-21T09:31:15;101128.78;;;9.98;85.84
57827;BME280;43656;57.746;11.780;2023-03-21T09:33:43;101131.66;;;9.81;86.85
57827;BME280;43656;57.746;11.780;2023-03-21T09:36:10;101130.56;;;9.91;86.54
57827;BME280;43656;57.746;11.780;2023-03-21T09:38:41;101133.78;;;10.01;87.07
57827;BME280;43656;57.746;11.780;2023-03-21T09:49:49;101124.28;;;10.34;85.50
57827;BME280;43656;57.746;11.780;2023-03-21T09:55:04;101116.66;;;10.38;85.61
57827;BME280;43656;57.746;11.780;2023-03-21T09:57:46;101119.81;;;10.42;nan
57827;BME280;43656;57.746;11.780;2023-03-21T10:00:26;101103.34;;;10.51;84.46
57827;BME280;43656;57.746;11.780;2023-03-21T10:02:56;101111.94;;;10.40;84.44
57827;BME280;43656;57.746;11.780;2023-03-21T10:05:30;101117.25;;;10.55;84.08
57827;BME280;43656;57.746;11.780;2023-03-21T10:08:07;101111.84;;;10.70;83.78
57827;BME280;43656;57.746;11.780;2023-03-21T10:10:57;101105.88;;;10.74;83.27
57827;BME280;43656;57.746;11.780;2023-03-21T10:13:28;101106.25;;;10.71;83.06
57827;BME280;43656;57.746;11.780;2023-03-21T10:15:57;101112.53;;;10.57;83.12
57827;BME280;43656;57.746;11.780;2023-03-21T10:18:28;101105.88;;;10.53;83.05
57827;BME280;43656;57.746;11.780;2023-03-21T10:20:54;101108.72;;;10.51;82.97
57827;BME280;43656;57.746;11.780;2023-03-21T10:23:21;101103.22;;;10.38;82.59
57827;BME280;43656;57.746;11.780;2023-03-21T10:25:53;101089.78;;;10.38;82.02
57827;BME280;43656;57.746;11.780;2023-03-21T10:28:24;101095.19;;;10.23;82.21
57827;BME280;43656;57.746;11.780;2023-03-21T10:30:59;101074.34;;;10.10;82.20
57827;BME280;43656;57.746;11.780;2023-03-21T10:33:33;101105.69;;;10.40;81.81
57827;BME280;43656;57.746;11.780;2023-03-21T10:36:07;101106.69;;;10.53;81.71
57827;BME280;43656;57.746;11.780;2023-03-21T10:38:34;101099.22;;;10.70;80.56
57827;BME280;43656;57.746;11.780;2023-03-21T10:41:00;101091.31;;;10.47;81.15
57827;BME280;43656;57.746;11.780;2023-03-21T10:46:25;101095.88;;;10.47;80.71
57827;BME280;43656;57.746;11.780;2023-03-21T10:48:52;101094.03;;;10.32;80.99
57827;BME280;43656;57.746;11.780;2023-03-21T10:51:20;101092.47;;;10.38;80.68
57827;BME280;43656;57.746;11.780;2023-03-21T10:53:54;101091.03;;;10.06;81.26
57827;BME280;43656;57.746;11.780;2023-03-21T10:56:26;101093.09;;;10.04;81.38
57827;BME280;43656;57.746;11.780;2023-03-21T10:58:53;101044.00;;;9.65;81.24
57827;BME280;43656;57.746;11.780;2023-03-21T11:01:33;101083.94;;;9.83;81.58
57827;BME280;43656;57.746;11.780;2023-03-21T11:04:18;101083.94;;;9.83;81.52
57827;BME280;43656;57.746;11.780;2023-03-21T11:06:50;101083.47;;;9.80;81.39
57827;BME280;43656;57.746;11.780;2023-03-21T11:09:21;101083.47;;;9.80;81.87
57827;BME280;43656;57.746;11.780;2023-03-21T11:12:08;101083.28;;;9.81;82.17
57827;BME280;43656;57.746;11.780;2023-03-21T11:14:47;101086.16;;;9.80;81.19
57827;BME280;43656;57.746;11.780;2023-03-21T11:19:47;101058.00;;;10.12;80.50
57827;BME280;43656;57.746;11.780;2023-03-21T11:22:14;101041.41;;;9.87;81.07
57827;BME280;43656;57.746;11.780;2023-03-21T11:24:41;101051.00;;;9.96;80.72
57827;BME280;43656;57.746;11.780;2023-03-21T11:27:11;101053.28;;;9.78;81.97
57827;BME280;43656;57.746;11.780;2023-03-21T11:29:38;101052.22;;;9.94;80.89
57827;BME280;43656;57.746;11.780;2023-03-21T11:32:09;101047.16;;;9.84;80.68
57827;BME280;43656;57.746;11.780;2023-03-21T11:40:20;101039.94;;;10.06;80.66
57827;BME280;43656;57.746;11.780;2023-03-21T11:42:53;101036.84;;;9.87;81.09
57827;BME280;43656;57.746;11.780;2023-03-21T11:45:27;101030.44;;;9.88;81.42
57827;BME280;43656;57.746;11.780;2023-03-21T11:47:56;101026.28;;;9.86;80.81
57827;BME280;43656;57.746;11.780;2023-03-21T12:09:41;101006.69;;;9.71;80.55
57827;BME280;43656;57.746;11.780;2023-03-21T12:12:42;101007.84;;;9.83;80.00
57827;BME280;43656;57.746;11.780;2023-03-21T12:20:31;101020.19;;;9.77;80.45
57827;BME280;43656;57.746;11.780;2023-03-21T12:25:41;101008.81;;;9.60;80.98
57827;BME280;43656;57.746;11.780;2023-03-21T12:31:23;100981.72;;;9.40;80.05
57827;BME280;43656;57.746;11.780;2023-03-21T12:41:49;101012.09;;;9.41;81.64
57827;BME280;43656;57.746;11.780;2023-03-21T12:44:23;101004.66;;;9.43;81.43
57827;BME280;43656;57.746;11.780;2023-03-21T12:47:00;101002.53;;;9.38;82.04
57827;BME280;43656;57.746;11.780;2023-03-21T12:52:12;100990.03;;;9.46;82.68
57827;BME280;43656;57.746;11.780;2023-03-21T12:54:46;100982.59;;;9.62;82.04
57827;BME280;43656;57.746;11.780;2023-03-21T12:57:26;100988.13;;;9.76;81.75
57827;BME280;43656;57.746;11.780;2023-03-21T12:59:57;100990.25;;;9.80;82.05
57827;BME280;43656;57.746;11.780;2023-03-21T13:02:46;100988.88;;;9.70;83.33
57827;BME280;43656;57.746;11.780;2023-03-21T13:07:53;100966.53;;;9.69;83.60
57827;BME280;43656;57.746;11.780;2023-03-21T13:10:22;100978.84;;;9.78;82.72
57827;BME280;43656;57.746;11.780;2023-03-21T13:23:54;100963.56;;;9.13;84.43
57827;BME280;43656;57.746;11.780;2023-03-21T13:26:31;100945.53;;;8.92;84.87
57827;BME280;43656;57.746;11.780;2023-03-21T13:28:57;100928.13;;;8.88;85.32
57827;BME280;43656;57.746;11.780;2023-03-21T13:31:26;100925.25;;;8.89;85.39
57827;BME280;43656;57.746;11.780;2023-03-21T13:33:58;100935.72;;;8.99;85.95
57827;BME280;43656;57.746;11.780;2023-03-21T13:36:27;100935.63;;;8.92;86.30
57827;BME280;43656;57.746;11.780;2023-03-21T13:38:58;100926.34;;;8.80;86.31
57827;BME280;43656;57.746;11.780;2023-03-21T13:41:34;100925.25;;;8.75;87.11
57827;BME280;43656;57.746;11.780;2023-03-21T13:49:01;100922.13;;;8.71;87.87
57827;BME280;43656;57.746;11.780;2023-03-21T13:51:44;100912.31;;;8.78;87.87
57827;BME280;43656;57.746;11.780;2023-03-21T13:59:12;100894.44;;;8.70;89.35
57827;BME280;43656;57.746;11.780;2023-03-21T14:01:57;100898.44;;;8.75;89.65
57827;BME280;43656;57.746;11.780;2023-03-21T14:04:26;100885.19;;;8.88;88.83
57827;BME280;43656;57.746;11.780;2023-03-21T14:09:23;100851.78;;;8.90;88.80
57827;BME280;43656;57.746;11.780;2023-03-21T14:11:50;100877.13;;;9.03;89.78
57827;BME280;43656;57.746;11.780;2023-03-21T14:14:19;100847.13;;;9.14;89.07
57827;BME280;43656;57.746;11.780;2023-03-21T14:16:44;100867.22;;;9.39;88.68
57827;BME280;43656;57.746;11.780;2023-03-21T14:19:11;100870.44;;;9.50;88.74
57827;BME280;43656;57.746;11.780;2023-03-21T14:21:37;100867.69;;;9.43;88.92
57827;BME280;43656;57.746;11.780;2023-03-21T14:24:12;100865.81;;;9.44;89.48
57827;BME280;43656;57.746;11.780;2023-03-21T14:26:49;100848.56;;;9.31;89.51
57827;BME280;43656;57.746;11.780;2023-03-21T14:29:22;100848.19;;;9.34;89.60
57827;BME280;43656;57.746;11.780;2023-03-21T14:31:49;100835.13;;;9.31;89.94
57827;BME280;43656;57.746;11.780;2023-03-21T14:34:15;100843.50;;;9.43;89.07
57827;BME280;43656;57.746;11.780;2023-03-21T14:36:41;100842.69;;;9.43;88.95
57827;BME280;43656;57.746;11.780;2023-03-21T14:39:20;100826.56;;;9.43;89.63
57827;BME280;43656;57.746;11.780;2023-03-21T14:46:46;100814.75;;;9.58;89.31
57827;BME280;43656;57.746;11.780;2023-03-21T14:49:18;100812.13;;;9.65;89.70
57827;BME280;43656;57.746;11.780;2023-03-21T14:51:44;100806.16;;;9.70;89.13